Time;durP1;ratioP1;P1;durP2;ratioP2;P2;SDS_P1;SDS_P2;PMS_P1;PMS_P2;Temp;Humidity;BMP_temperature;BMP_pressure;BME280_temperature;BME280_humidity;BME280_pressure;Samples;Min_cycle;Max_cycle;Signal;HPM_P1;HPM_P2
2022/12/31 00:01:27;;;;;;;4.85;3.63;;;13.50;99.90;;;;;;5017569;28;93346;-79
2022/12/31 00:03:55;;;;;;;3.30;2.97;;;13.50;99.90;;;;;;5035906;28;92349;-79
2022/12/31 00:06:30;;;;;;;4.63;3.45;;;13.50;99.90;;;;;;5016225;28;98672;-79
2022/12/31 00:08:59;;;;;;;5.43;2.72;;;13.50;99.90;;;;;;5017627;28;96518;-79
2022/12/31 00:11:28;;;;;;;4.05;3.47;;;13.50;99.90;;;;;;5035462;28;92529;-79
2022/12/31 00:13:57;;;;;;;4.35;3.17;;;13.40;99.90;;;;;;5035704;28;92639;-79
2022/12/31 00:16:29;;;;;;;4.35;3.55;;;13.40;99.90;;;;;;5035264;28;94875;-78
2022/12/31 00:18:58;;;;;;;8.18;4.22;;;13.40;99.90;;;;;;5017771;28;95987;-78
2022/12/31 00:21:31;;;;;;;5.68;4.13;;;13.30;99.90;;;;;;5017635;28;93073;-78
2022/12/31 00:23:58;;;;;;;8.82;5.35;;;13.30;99.90;;;;;;5036409;28;92318;-79
2022/12/31 00:26:28;;;;;;;5.57;4.70;;;13.30;99.90;;;;;;5035232;28;94708;-78
2022/12/31 00:28:57;;;;;;;6.97;5.32;;;13.20;99.90;;;;;;5035480;28;93059;-78
2022/12/31 00:31:28;;;;;;;7.60;5.53;;;13.20;99.90;;;;;;5034496;28;95468;-78
2022/12/31 00:33:56;;;;;;;6.10;4.75;;;13.30;99.90;;;;;;5017812;28;92386;-78
2022/12/31 00:36:30;;;;;;;7.82;5.00;;;13.20;99.90;;;;;;5019663;28;96041;-77
2022/12/31 00:38:59;;;;;;;5.55;5.05;;;13.20;99.90;;;;;;5021324;28;93202;-78
2022/12/31 00:41:27;;;;;;;8.60;4.82;;;13.20;99.90;;;;;;5021108;28;92505;-78
2022/12/31 00:43:55;;;;;;;7.65;5.47;;;13.30;99.90;;;;;;5020866;28;92482;-78
2022/12/31 00:46:24;;;;;;;6.97;5.45;;;13.30;99.90;;;;;;5020416;28;94330;-79
2022/12/31 00:48:51;;;;;;;6.63;5.80;;;13.30;99.90;;;;;;5021451;28;93919;-79
2022/12/31 00:51:21;;;;;;;8.95;4.95;;;13.30;99.90;;;;;;5020926;28;92390;-79
2022/12/31 00:53:48;;;;;;;6.65;5.25;;;13.30;99.90;;;;;;5021064;28;92480;-79
2022/12/31 00:56:18;;;;;;;5.55;4.70;;;13.30;99.90;;;;;;5002704;28;98718;-79
2022/12/31 00:58:47;;;;;;;7.88;4.20;;;13.30;99.90;;;;;;5020471;28;96292;-79
2022/12/31 01:01:17;;;;;;;6.38;4.50;;;13.40;99.90;;;;;;5038855;28;92424;-79
2022/12/31 01:03:46;;;;;;;6.45;4.93;;;13.30;99.90;;;;;;5003819;28;92424;-78
2022/12/31 01:06:13;;;;;;;7.47;5.25;;;13.30;99.90;;;;;;5038426;28;93492;-79
2022/12/31 01:08:40;;;;;;;8.88;5.15;;;13.40;99.90;;;;;;5003578;28;96018;-79
2022/12/31 01:11:22;;;;;;;6.38;5.25;;;13.30;99.90;;;;;;5003953;28;92403;-79
2022/12/31 01:13:56;;;;;;;7.55;4.95;;;13.30;99.90;;;;;;5020812;28;91761;-79
2022/12/31 01:16:33;;;;;;;7.05;4.78;;;13.40;99.90;;;;;;5004497;28;94148;-79
2022/12/31 01:19:03;;;;;;;6.95;4.82;;;13.30;99.90;;;;;;5020102;28;95947;-79
2022/12/31 01:21:30;;;;;;;5.90;4.18;;;13.40;99.90;;;;;;5019221;28;95027;-79
2022/12/31 01:24:04;;;;;;;8.57;4.43;;;13.40;99.90;;;;;;5020084;28;93381;-79
2022/12/31 01:26:31;;;;;;;7.60;4.63;;;13.40;99.90;;;;;;5019836;28;95874;-78
2022/12/31 01:28:58;;;;;;;7.40;4.70;;;13.40;99.90;;;;;;5020203;28;92948;-78
2022/12/31 01:31:26;;;;;;;4.72;4.30;;;13.40;99.90;;;;;;5020537;28;92550;-79
2022/12/31 01:33:53;;;;;;;8.95;4.63;;;13.40;99.90;;;;;;5020139;28;92680;-79
2022/12/31 01:36:24;;;;;;;8.95;4.50;;;13.40;99.90;;;;;;5003433;28;95772;-79
2022/12/31 01:38:57;;;;;;;6.15;4.13;;;13.40;99.90;;;;;;5003722;28;95674;-79
2022/12/31 01:41:32;;;;;;;5.82;4.57;;;13.40;99.90;;;;;;5038195;28;92413;-79
2022/12/31 01:44:22;;;;;;;5.68;3.95;;;13.50;99.90;;;;;;5020053;28;92511;-79
2022/12/31 01:46:57;;;;;;;6.88;4.45;;;13.40;99.90;;;;;;5016196;28;98130;-79
2022/12/31 01:49:32;;;;;;;9.57;4.68;;;13.40;99.90;;;;;;5019852;28;97968;-79
2022/12/31 01:52:07;;;;;;;8.38;5.10;;;13.40;99.90;;;;;;5020080;28;93561;-79
2022/12/31 01:54:39;;;;;;;6.03;4.35;;;13.40;99.90;;;;;;5019590;28;92518;-79
2022/12/31 01:57:08;;;;;;;6.97;4.63;;;13.40;99.90;;;;;;5038115;28;93322;-79
2022/12/31 01:59:35;;;;;;;9.40;4.30;;;13.40;99.90;;;;;;5003153;28;93006;-79
2022/12/31 02:02:09;;;;;;;4.72;3.92;;;13.40;99.90;;;;;;5003229;28;93082;-79
2022/12/31 02:04:37;;;;;;;8.60;4.40;;;13.40;99.90;;;;;;5004491;28;91852;-79
2022/12/31 02:07:06;;;;;;;7.32;4.30;;;13.40;99.90;;;;;;5019814;28;93867;-79
2022/12/31 02:09:37;;;;;;;5.57;4.55;;;13.40;99.90;;;;;;5019066;28;93072;-79
2022/12/31 02:12:06;;;;;;;4.65;4.13;;;13.40;99.90;;;;;;5036469;28;95283;-79
2022/12/31 02:14:40;;;;;;;8.43;4.35;;;13.30;99.90;;;;;;5037672;28;92413;-79
2022/12/31 02:17:13;;;;;;;4.35;3.72;;;13.30;99.90;;;;;;5019346;28;94581;-79
2022/12/31 02:20:12;;;;;;;6.53;4.22;;;13.30;99.90;;;;;;5035718;28;97441;-79
2022/12/31 02:23:06;;;;;;;6.15;3.97;;;13.30;99.90;;;;;;5019727;28;92684;-79
2022/12/31 02:26:30;;;;;;;7.07;3.67;;;13.30;99.90;;;;;;5019314;28;92466;-79
2022/12/31 02:29:19;;;;;;;5.38;3.70;;;13.30;99.90;;;;;;4954884;28;95546;-79
2022/12/31 02:32:10;;;;;;;4.88;3.63;;;13.30;99.90;;;;;;4939433;28;93107;-79
2022/12/31 02:34:55;;;;;;;4.80;3.22;;;13.20;99.90;;;;;;4996446;28;92937;-79
2022/12/31 02:37:27;;;;;;;4.07;3.40;;;13.20;99.90;;;;;;5020042;28;92424;-79
2022/12/31 02:39:55;;;;;;;3.67;3.10;;;13.20;99.90;;;;;;5035713;28;95538;-79
2022/12/31 02:42:22;;;;;;;3.70;3.30;;;13.20;99.90;;;;;;5037012;28;95353;-79
2022/12/31 02:44:49;;;;;;;4.60;3.40;;;13.20;99.90;;;;;;5019403;28;92457;-79
2022/12/31 02:47:51;;;;;;;3.67;2.70;;;13.20;99.90;;;;;;5019431;28;93382;-79
2022/12/31 02:50:18;;;;;;;3.97;2.63;;;13.20;99.90;;;;;;5015576;28;93092;-78
2022/12/31 02:53:04;;;;;;;5.57;2.90;;;13.10;99.90;;;;;;5018973;28;93271;-79
2022/12/31 02:55:40;;;;;;;3.13;2.67;;;13.10;99.90;;;;;;5019189;28;92332;-78
2022/12/31 03:04:31;;;;;;;2.95;2.33;;;13.00;99.90;;;;;;5037019;28;93098;-78
2022/12/31 03:07:01;;;;;;;3.83;2.05;;;13.00;99.90;;;;;;5035415;28;94816;-78
2022/12/31 03:09:28;;;;;;;3.50;2.05;;;13.00;99.90;;;;;;5018252;28;92730;-78
2022/12/31 03:14:42;;;;;;;3.95;2.17;;;12.90;99.90;;;;;;5018348;28;95536;-78
2022/12/31 03:17:09;;;;;;;4.13;2.20;;;12.90;99.90;;;;;;5018814;28;92500;-78
2022/12/31 03:22:29;;;;;;;2.80;1.88;;;12.90;99.90;;;;;;5021738;28;93243;-78
2022/12/31 03:27:49;;;;;;;2.13;1.50;;;12.90;99.90;;;;;;5036077;28;92368;-78
2022/12/31 03:30:18;;;;;;;1.58;1.13;;;12.80;99.90;;;;;;5036837;28;92456;-78
2022/12/31 03:32:46;;;;;;;2.15;1.27;;;12.80;99.90;;;;;;5016748;28;98236;-78
2022/12/31 03:35:15;;;;;;;1.40;1.30;;;12.80;99.90;;;;;;5001417;28;98482;-78
2022/12/31 03:37:42;;;;;;;1.52;1.30;;;12.80;99.90;;;;;;5018577;28;92669;-78
2022/12/31 03:40:12;;;;;;;3.55;1.23;;;12.80;99.90;;;;;;5018133;28;92568;-78
2022/12/31 03:42:43;;;;;;;3.08;1.25;;;12.80;99.90;;;;;;5018358;28;93342;-78
2022/12/31 03:45:11;;;;;;;1.20;1.08;;;12.80;99.90;;;;;;5018243;28;94353;-78
2022/12/31 03:47:38;;;;;;;1.35;1.05;;;12.80;99.90;;;;;;5001477;28;92463;-78
2022/12/31 03:50:07;;;;;;;3.25;1.25;;;12.80;99.90;;;;;;5018737;28;92306;-78
2022/12/31 03:52:34;;;;;;;0.93;0.90;;;12.80;99.90;;;;;;5035868;28;94207;-78
2022/12/31 03:55:02;;;;;;;3.42;1.40;;;12.80;99.90;;;;;;5001146;28;95889;-78
2022/12/31 03:57:29;;;;;;;2.53;1.55;;;12.80;99.90;;;;;;5016735;28;95417;-79
2022/12/31 03:59:56;;;;;;;2.25;1.27;;;12.70;99.90;;;;;;5018132;28;92451;-79
2022/12/31 04:02:24;;;;;;;2.50;1.20;;;12.70;99.90;;;;;;5001157;28;95456;-79
2022/12/31 04:04:54;;;;;;;2.17;1.50;;;12.70;99.90;;;;;;5035789;28;92848;-78
2022/12/31 04:07:22;;;;;;;2.85;1.27;;;12.70;99.90;;;;;;5018256;28;92389;-78
2022/12/31 04:09:52;;;;;;;2.20;1.33;;;12.70;99.90;;;;;;4999516;28;92538;-79
2022/12/31 04:12:20;;;;;;;4.13;1.85;;;12.70;99.90;;;;;;5018002;28;93285;-78
2022/12/31 04:14:47;;;;;;;2.13;1.50;;;12.70;99.90;;;;;;5036138;28;92918;-78
2022/12/31 04:17:16;;;;;;;2.97;1.50;;;12.70;99.90;;;;;;5017630;28;92498;-78
2022/12/31 04:19:44;;;;;;;3.50;1.67;;;12.70;99.90;;;;;;5035781;28;92423;-78
2022/12/31 04:22:11;;;;;;;4.82;1.90;;;12.70;99.90;;;;;;5015700;28;96980;-78
2022/12/31 04:24:38;;;;;;;4.97;2.03;;;12.70;99.90;;;;;;5035691;28;95474;-78
2022/12/31 04:27:05;;;;;;;4.50;2.42;;;12.70;99.90;;;;;;5017443;28;92496;-78
2022/12/31 04:29:34;;;;;;;3.55;2.00;;;12.70;99.90;;;;;;5017945;28;92592;-78
2022/12/31 04:32:03;;;;;;;5.55;2.47;;;12.70;99.90;;;;;;5000618;28;96988;-78
2022/12/31 04:34:30;;;;;;;3.67;2.50;;;12.70;99.90;;;;;;5000506;28;94050;-78
2022/12/31 04:36:58;;;;;;;4.60;2.42;;;12.70;99.90;;;;;;5000955;28;92396;-79
2022/12/31 04:39:25;;;;;;;3.50;2.42;;;12.70;99.90;;;;;;5018202;28;91609;-79
2022/12/31 04:41:53;;;;;;;3.67;2.30;;;12.70;99.90;;;;;;5035183;28;93291;-79
2022/12/31 04:44:20;;;;;;;4.15;3.05;;;12.70;99.90;;;;;;5035030;28;94238;-79
2022/12/31 04:46:47;;;;;;;2.60;2.40;;;12.70;99.90;;;;;;5034462;28;94767;-80
2022/12/31 04:49:15;;;;;;;3.47;2.60;;;12.70;99.90;;;;;;5017248;28;92440;-79
2022/12/31 04:51:42;;;;;;;3.55;2.25;;;12.60;99.90;;;;;;5000548;28;95918;-77
2022/12/31 04:54:10;;;;;;;3.97;2.20;;;12.70;99.90;;;;;;5034824;28;92892;-78
2022/12/31 04:56:37;;;;;;;5.53;2.70;;;12.60;99.90;;;;;;5017570;28;92642;-78
2022/12/31 04:59:06;;;;;;;2.70;2.50;;;12.60;99.90;;;;;;5017326;28;92522;-78
2022/12/31 05:01:37;;;;;;;4.78;2.30;;;12.70;99.90;;;;;;5017667;28;93589;-78
2022/12/31 05:04:06;;;;;;;3.28;2.25;;;12.70;99.90;;;;;;5017476;28;93934;-78
2022/12/31 05:06:33;;;;;;;3.65;2.35;;;12.70;99.90;;;;;;5017567;28;92656;-78
2022/12/31 05:09:00;;;;;;;3.33;2.17;;;12.70;99.90;;;;;;5017049;28;92469;-78
2022/12/31 05:11:27;;;;;;;3.75;2.20;;;12.70;99.90;;;;;;5015705;28;98149;-78
2022/12/31 05:13:55;;;;;;;3.30;1.77;;;12.70;99.90;;;;;;5000356;28;97941;-78
2022/12/31 05:16:22;;;;;;;2.80;1.90;;;12.70;99.90;;;;;;5000589;28;92444;-79
2022/12/31 05:18:49;;;;;;;2.80;2.05;;;12.60;99.90;;;;;;5035270;28;92957;-79
2022/12/31 05:21:20;;;;;;;3.58;1.90;;;12.70;99.90;;;;;;5017679;28;94261;-79
2022/12/31 05:23:48;;;;;;;3.88;2.15;;;12.70;99.90;;;;;;5038518;28;92665;-78
2022/12/31 05:26:15;;;;;;;2.83;2.10;;;12.70;99.90;;;;;;5038287;28;92520;-79
2022/12/31 05:28:43;;;;;;;5.35;2.20;;;12.60;99.90;;;;;;5020675;28;92423;-79
2022/12/31 05:31:10;;;;;;;3.35;2.03;;;12.60;99.90;;;;;;5003266;28;96511;-78
2022/12/31 05:33:38;;;;;;;3.30;1.75;;;12.60;99.90;;;;;;5038338;28;92529;-79
2022/12/31 05:36:05;;;;;;;4.13;1.60;;;12.60;99.90;;;;;;5002088;28;95480;-79
2022/12/31 05:38:38;;;;;;;1.70;1.35;;;12.60;99.90;;;;;;5038262;28;92429;-79
2022/12/31 05:41:08;;;;;;;3.92;1.60;;;12.60;99.90;;;;;;5037771;28;94487;-78
2022/12/31 05:43:35;;;;;;;2.38;1.55;;;12.60;99.90;;;;;;5038007;28;92846;-79
2022/12/31 05:46:04;;;;;;;1.85;1.23;;;12.60;99.90;;;;;;5019985;28;92452;-79
2022/12/31 05:48:31;;;;;;;2.25;1.40;;;12.70;99.90;;;;;;5038154;28;92555;-79
2022/12/31 05:50:58;;;;;;;2.58;1.52;;;12.70;99.90;;;;;;5037959;28;93687;-79
2022/12/31 05:53:26;;;;;;;4.55;1.90;;;12.60;99.90;;;;;;5038047;28;93050;-79
2022/12/31 05:55:53;;;;;;;4.53;2.00;;;12.60;99.90;;;;;;5020228;28;92494;-79
2022/12/31 05:58:20;;;;;;;3.90;2.03;;;12.60;99.90;;;;;;5019782;28;92656;-79
2022/12/31 06:00:47;;;;;;;4.82;2.30;;;12.70;99.90;;;;;;5002311;28;95748;-79
2022/12/31 06:03:15;;;;;;;2.03;1.70;;;12.60;99.90;;;;;;5019554;28;95586;-79
2022/12/31 06:05:42;;;;;;;3.70;2.10;;;12.60;99.90;;;;;;5037995;28;92456;-79
2022/12/31 06:08:11;;;;;;;3.47;2.40;;;12.60;99.90;;;;;;5037439;28;92864;-79
2022/12/31 06:10:38;;;;;;;5.35;2.78;;;12.70;99.90;;;;;;5018268;28;93187;-79
2022/12/31 06:13:06;;;;;;;3.55;2.78;;;12.70;99.90;;;;;;5019192;28;93539;-79
2022/12/31 06:15:39;;;;;;;4.68;2.70;;;12.60;99.90;;;;;;5019700;28;92915;-79
2022/12/31 06:18:06;;;;;;;5.57;3.35;;;12.70;99.90;;;;;;5019883;28;91743;-79
2022/12/31 06:20:36;;;;;;;3.00;2.80;;;12.60;99.90;;;;;;5019260;28;94337;-79
2022/12/31 06:23:04;;;;;;;3.63;3.30;;;12.70;99.90;;;;;;5018856;28;94084;-79
2022/12/31 06:25:33;;;;;;;4.57;3.78;;;12.70;99.90;;;;;;5036419;28;94737;-79
2022/12/31 06:28:01;;;;;;;6.00;3.88;;;12.70;99.90;;;;;;5019207;28;92484;-79
2022/12/31 06:30:28;;;;;;;4.32;3.80;;;12.70;99.90;;;;;;5019022;28;93532;-79
2022/12/31 06:32:55;;;;;;;3.97;3.10;;;12.70;99.90;;;;;;5018243;28;96160;-79
2022/12/31 06:35:23;;;;;;;10.90;3.25;;;12.70;99.90;;;;;;5002710;28;93289;-79
2022/12/31 06:37:51;;;;;;;4.00;2.95;;;12.70;99.90;;;;;;5019467;28;92522;-79
2022/12/31 06:40:18;;;;;;;4.05;2.60;;;12.70;99.90;;;;;;5002644;28;94171;-79
2022/12/31 06:42:45;;;;;;;2.90;2.63;;;12.70;99.90;;;;;;5002600;28;96318;-79
2022/12/31 06:45:12;;;;;;;2.95;2.60;;;12.70;99.90;;;;;;5002470;28;93016;-79
2022/12/31 06:47:39;;;;;;;3.95;2.90;;;12.70;99.90;;;;;;5002615;28;92643;-79
2022/12/31 06:50:07;;;;;;;2.60;2.40;;;12.70;99.90;;;;;;5017624;28;95443;-79
2022/12/31 06:52:34;;;;;;;2.40;2.15;;;12.70;99.90;;;;;;5018638;28;98457;-78
2022/12/31 06:55:01;;;;;;;3.42;2.88;;;12.70;99.90;;;;;;5019263;28;92473;-78
2022/12/31 06:57:28;;;;;;;2.70;2.50;;;12.80;99.90;;;;;;5019035;28;92782;-79
2022/12/31 06:59:58;;;;;;;2.83;2.63;;;12.80;99.90;;;;;;5036682;28;93140;-78
2022/12/31 07:02:25;;;;;;;3.00;2.80;;;12.80;99.90;;;;;;5018865;28;92449;-78
2022/12/31 07:05:03;;;;;;;3.05;2.80;;;12.80;99.90;;;;;;5018736;28;92420;-78
2022/12/31 07:08:00;;;;;;;3.53;3.08;;;12.90;99.90;;;;;;5019399;28;91748;-78
2022/12/31 07:10:58;;;;;;;3.60;3.30;;;12.90;99.90;;;;;;5036598;28;93251;-78
2022/12/31 07:13:44;;;;;;;3.97;3.67;;;12.80;99.90;;;;;;5005820;28;92891;-79
2022/12/31 07:16:32;;;;;;;5.72;3.65;;;12.80;99.90;;;;;;5017886;28;94765;-78
2022/12/31 07:19:38;;;;;;;3.88;3.47;;;12.80;99.90;;;;;;5018436;28;92516;-79
2022/12/31 07:22:12;;;;;;;4.53;3.00;;;12.80;99.90;;;;;;5036414;28;93350;-79
2022/12/31 07:24:39;;;;;;;4.35;2.80;;;12.80;99.90;;;;;;5018667;28;93199;-79
2022/12/31 07:27:31;;;;;;;3.22;2.92;;;12.80;99.90;;;;;;5001874;28;92493;-78
2022/12/31 07:30:21;;;;;;;5.03;3.03;;;12.80;99.90;;;;;;5036236;28;92585;-79
2022/12/31 07:33:13;;;;;;;2.83;2.63;;;12.90;99.90;;;;;;5018095;28;94356;-78
2022/12/31 07:35:50;;;;;;;5.00;3.20;;;12.80;99.90;;;;;;5036794;28;93799;-79
2022/12/31 07:38:42;;;;;;;2.80;2.60;;;12.80;99.90;;;;;;5001411;28;92567;-78
2022/12/31 07:41:46;;;;;;;3.13;2.75;;;12.80;99.90;;;;;;5036670;28;93066;-79
2022/12/31 07:44:36;;;;;;;2.80;2.60;;;12.90;99.90;;;;;;5016482;28;99359;-79
2022/12/31 07:47:10;;;;;;;3.58;2.83;;;12.80;99.90;;;;;;5017756;28;99255;-79
2022/12/31 07:49:41;;;;;;;4.00;3.60;;;12.80;99.90;;;;;;5035933;28;92536;-79
2022/12/31 07:52:08;;;;;;;3.50;3.20;;;12.80;99.90;;;;;;5018478;28;92938;-79
2022/12/31 07:54:36;;;;;;;3.40;3.15;;;12.80;99.90;;;;;;5017796;28;94141;-79
2022/12/31 07:57:03;;;;;;;3.47;2.80;;;12.80;99.90;;;;;;5017550;28;95549;-79
2022/12/31 07:59:40;;;;;;;3.03;2.83;;;12.80;99.90;;;;;;5018159;28;92424;-79
2022/12/31 08:02:28;;;;;;;3.40;3.10;;;12.80;99.90;;;;;;5018230;28;91771;-78
2022/12/31 08:05:17;;;;;;;3.10;2.80;;;12.90;99.90;;;;;;5035940;28;93197;-79
2022/12/31 08:08:00;;;;;;;3.42;2.95;;;12.90;99.90;;;;;;5019749;28;94151;-79
2022/12/31 08:10:50;;;;;;;2.83;2.60;;;12.90;99.90;;;;;;5016775;28;94870;-78
2022/12/31 08:13:18;;;;;;;2.60;2.40;;;12.90;99.90;;;;;;5036250;28;92351;-79
2022/12/31 08:15:45;;;;;;;2.63;2.40;;;12.90;99.90;;;;;;5017468;28;94285;-79
2022/12/31 08:18:13;;;;;;;2.35;2.17;;;12.80;99.90;;;;;;5017988;28;93166;-79
2022/12/31 08:20:54;;;;;;;2.13;1.92;;;12.80;99.90;;;;;;5000958;28;92456;-78
2022/12/31 08:23:34;;;;;;;1.60;1.50;;;12.90;99.90;;;;;;5017585;28;92507;-78
2022/12/31 08:26:16;;;;;;;1.90;1.75;;;12.90;99.90;;;;;;5000811;28;95824;-78
2022/12/31 08:29:14;;;;;;;1.63;1.52;;;12.90;99.90;;;;;;5035917;28;93133;-78
2022/12/31 08:31:58;;;;;;;1.67;1.40;;;12.90;99.90;;;;;;5035738;28;92381;-78
2022/12/31 08:34:57;;;;;;;1.83;1.40;;;12.90;99.90;;;;;;5019222;28;92703;-79
2022/12/31 08:37:43;;;;;;;1.60;1.50;;;13.00;99.90;;;;;;5033898;28;96836;-79
2022/12/31 08:40:14;;;;;;;1.73;1.63;;;13.00;99.90;;;;;;5017412;28;96466;-79
2022/12/31 08:43:08;;;;;;;1.70;1.60;;;13.00;99.90;;;;;;5016925;28;92402;-78
2022/12/31 08:45:40;;;;;;;2.03;1.90;;;13.10;99.90;;;;;;5017256;28;92545;-78
2022/12/31 08:48:28;;;;;;;2.58;2.03;;;13.10;99.90;;;;;;5016958;28;96091;-79
2022/12/31 08:50:56;;;;;;;2.28;2.08;;;13.10;99.90;;;;;;5035583;28;92942;-79
2022/12/31 08:53:23;;;;;;;3.15;2.28;;;13.10;99.90;;;;;;5000424;28;92545;-79
2022/12/31 08:55:59;;;;;;;3.55;2.65;;;13.20;99.90;;;;;;5017791;28;91813;-78
2022/12/31 08:58:35;;;;;;;3.75;2.63;;;13.20;99.90;;;;;;5020614;28;95742;-78
2022/12/31 09:01:05;;;;;;;2.67;2.47;;;13.20;99.90;;;;;;5020891;28;93812;-79
2022/12/31 09:03:50;;;;;;;3.28;2.97;;;13.20;99.90;;;;;;5037408;28;94753;-79
2022/12/31 09:06:26;;;;;;;3.72;3.42;;;13.30;99.90;;;;;;5020968;28;92558;-79
2022/12/31 09:09:17;;;;;;;2.80;2.60;;;13.30;99.90;;;;;;5020893;28;93264;-79
2022/12/31 09:12:02;;;;;;;2.70;2.50;;;13.40;99.90;;;;;;5037712;28;94524;-79
2022/12/31 09:14:50;;;;;;;3.95;3.65;;;13.40;99.90;;;;;;5020588;28;92403;-79
2022/12/31 09:17:36;;;;;;;2.70;2.50;;;13.40;99.90;;;;;;5003973;28;92499;-78
2022/12/31 09:20:05;;;;;;;3.17;2.88;;;13.50;99.90;;;;;;5038858;28;93323;-80
2022/12/31 09:22:32;;;;;;;2.70;2.50;;;13.50;99.90;;;;;;5019971;28;95857;-79
2022/12/31 09:25:00;;;;;;;2.78;2.58;;;13.60;99.90;;;;;;5020555;28;92544;-80
2022/12/31 09:27:36;;;;;;;2.70;2.50;;;13.70;99.90;;;;;;5020502;28;93226;-80
2022/12/31 09:30:13;;;;;;;3.15;2.33;;;13.70;99.90;;;;;;5037349;28;95559;-79
2022/12/31 09:32:46;;;;;;;2.67;2.47;;;13.70;99.90;;;;;;5003396;28;96956;-80
2022/12/31 09:35:48;;;;;;;2.13;2.00;;;13.80;99.90;;;;;;5038276;28;92346;-79
2022/12/31 09:38:36;;;;;;;4.40;4.00;;;13.90;99.90;;;;;;5018622;28;92998;-80
2022/12/31 09:41:18;;;;;;;1.73;1.60;;;13.90;99.90;;;;;;5020375;28;93461;-79
2022/12/31 09:44:04;;;;;;;1.67;1.58;;;14.00;99.90;;;;;;5038184;28;93132;-80
2022/12/31 09:46:42;;;;;;;2.03;1.52;;;14.00;99.90;;;;;;5020076;28;92458;-80
2022/12/31 09:49:40;;;;;;;3.00;2.13;;;14.00;99.90;;;;;;5038498;28;92192;-80
2022/12/31 09:52:23;;;;;;;2.55;1.10;;;14.10;99.90;;;;;;5019870;28;95119;-80
2022/12/31 09:55:18;;;;;;;1.55;1.30;;;14.20;99.90;;;;;;5037743;28;93471;-80
2022/12/31 09:57:49;;;;;;;1.35;1.10;;;14.20;99.90;;;;;;4962413;28;95001;-79
2022/12/31 10:00:42;;;;;;;2.55;1.20;;;14.20;99.90;;;;;;5038113;28;92571;-79
2022/12/31 10:03:36;;;;;;;3.45;2.08;;;14.30;99.90;;;;;;5019419;28;95974;-79
2022/12/31 10:06:19;;;;;;;1.90;1.80;;;14.40;99.90;;;;;;5037769;28;93867;-79
2022/12/31 10:09:01;;;;;;;2.58;2.08;;;14.30;99.90;;;;;;5018871;28;92578;-78
2022/12/31 10:11:51;;;;;;;2.42;2.22;;;14.40;99.90;;;;;;5016158;28;92447;-79
2022/12/31 10:14:46;;;;;;;1.98;1.63;;;14.60;99.90;;;;;;5016227;28;96028;-79
2022/12/31 10:17:45;;;;;;;2.65;1.77;;;14.70;99.90;;;;;;5033533;28;92259;-79
2022/12/31 10:20:24;;;;;;;3.08;2.05;;;14.70;99.90;;;;;;5010994;28;92610;-79
2022/12/31 10:23:06;;;;;;;7.55;6.85;;;14.80;99.90;;;;;;5017032;28;92603;-79
2022/12/31 10:25:52;;;;;;;2.63;2.42;;;14.90;99.90;;;;;;5016236;28;95680;-79
2022/12/31 10:28:30;;;;;;;3.15;2.33;;;14.90;99.90;;;;;;5015822;28;97795;-79
2022/12/31 10:31:06;;;;;;;3.45;2.58;;;14.90;99.90;;;;;;5015701;28;92520;-80
2022/12/31 10:34:08;;;;;;;3.13;2.72;;;14.90;99.90;;;;;;5016284;28;92494;-79
2022/12/31 10:37:02;;;;;;;2.65;2.40;;;14.90;99.90;;;;;;5015706;28;96102;-79
2022/12/31 10:39:55;;;;;;;3.33;3.08;;;15.00;99.90;;;;;;5015753;28;93048;-79
2022/12/31 10:42:35;;;;;;;3.53;3.22;;;15.00;99.90;;;;;;5015996;28;92430;-79
2022/12/31 10:45:33;;;;;;;3.55;1.75;;;15.00;99.90;;;;;;5015493;28;92650;-80
2022/12/31 10:48:06;;;;;;;2.67;2.33;;;15.10;99.90;;;;;;5015339;28;94873;-79
2022/12/31 10:50:58;;;;;;;5.60;3.00;;;15.00;99.90;;;;;;5016935;28;94006;-79
2022/12/31 10:53:31;;;;;;;3.85;2.50;;;15.10;99.90;;;;;;5031170;28;94888;-80
2022/12/31 10:56:44;;;;;;;2.33;1.57;;;15.10;99.90;;;;;;5015812;28;92438;-80
2022/12/31 10:59:30;;;;;;;2.45;1.50;;;15.20;99.90;;;;;;5015392;28;94402;-80
2022/12/31 11:02:10;;;;;;;2.20;1.45;;;15.20;99.90;;;;;;5016718;28;93028;-80
2022/12/31 11:04:57;;;;;;;3.25;1.25;;;15.20;99.90;;;;;;5015298;28;92548;-80
2022/12/31 11:07:53;;;;;;;3.58;1.60;;;15.30;99.90;;;;;;5015768;28;93155;-79
2022/12/31 11:10:47;;;;;;;1.83;1.33;;;15.30;99.90;;;;;;5005809;28;95035;-79
2022/12/31 11:13:17;;;;;;;3.38;1.85;;;15.30;99.90;;;;;;5036634;28;93822;-79
2022/12/31 11:15:56;;;;;;;2.97;1.00;;;15.20;99.90;;;;;;5036762;28;92458;-79
2022/12/31 11:18:41;;;;;;;2.75;2.35;;;15.30;99.90;;;;;;5001697;28;92948;-79
2022/12/31 11:21:51;;;;;;;3.10;1.75;;;15.30;99.90;;;;;;5017011;28;97112;-79
2022/12/31 11:24:46;;;;;;;2.75;1.98;;;15.30;99.90;;;;;;5007904;28;99238;-79
2022/12/31 11:27:45;;;;;;;2.78;1.75;;;15.30;99.90;;;;;;5001738;28;92461;-79
2022/12/31 11:30:28;;;;;;;1.92;1.65;;;15.30;99.90;;;;;;5003081;28;92407;-79
2022/12/31 11:33:20;;;;;;;2.10;1.50;;;15.30;99.90;;;;;;5001687;28;94166;-79
2022/12/31 11:35:56;;;;;;;2.47;1.20;;;15.20;99.90;;;;;;5018698;28;92958;-79
2022/12/31 11:38:50;;;;;;;1.27;1.20;;;15.10;99.90;;;;;;5036647;28;92399;-79
2022/12/31 11:41:17;;;;;;;1.50;1.23;;;15.20;99.90;;;;;;5036754;28;91678;-79
2022/12/31 11:44:17;;;;;;;4.68;1.85;;;15.10;99.90;;;;;;5017726;28;95997;-79
2022/12/31 11:46:44;;;;;;;2.28;1.27;;;15.10;99.90;;;;;;5018192;28;94419;-79
2022/12/31 11:49:36;;;;;;;2.20;1.30;;;15.00;99.90;;;;;;5034806;28;94849;-79
2022/12/31 11:52:31;;;;;;;2.80;1.15;;;15.00;99.90;;;;;;5018653;28;92640;-79
2022/12/31 11:55:27;;;;;;;2.08;1.25;;;15.00;99.90;;;;;;5018221;28;93505;-79
2022/12/31 11:58:00;;;;;;;2.78;1.60;;;14.90;99.90;;;;;;5017738;28;97031;-79
2022/12/31 12:00:30;;;;;;;4.05;2.10;;;14.90;99.90;;;;;;5018324;28;92548;-79
2022/12/31 12:03:03;;;;;;;3.20;2.97;;;14.90;99.90;;;;;;5036077;28;92409;-79
2022/12/31 12:05:32;;;;;;;8.83;7.90;;;14.90;99.90;;;;;;5035647;28;94181;-79
2022/12/31 12:08:00;;;;;;;12.07;11.18;;;15.00;99.90;;;;;;5035952;28;94442;-78
2022/12/31 12:10:31;;;;;;;9.90;9.15;;;15.00;99.90;;;;;;5035430;28;92488;-79
2022/12/31 12:13:12;;;;;;;7.07;4.85;;;15.00;99.90;;;;;;5017787;28;92570;-81
2022/12/31 12:15:44;;;;;;;8.25;6.93;;;15.10;99.90;;;;;;5016157;28;98052;-80
2022/12/31 12:18:39;;;;;;;6.65;3.30;;;15.10;99.90;;;;;;5016319;28;98401;-80
2022/12/31 12:21:10;;;;;;;4.97;3.53;;;15.20;99.90;;;;;;5035429;28;92486;-80
2022/12/31 12:23:38;;;;;;;4.72;3.65;;;15.10;99.90;;;;;;5035869;28;93095;-79
2022/12/31 12:26:06;;;;;;;3.95;3.30;;;15.20;99.90;;;;;;5017246;28;94966;-79
2022/12/31 12:28:44;;;;;;;5.13;3.95;;;15.30;99.90;;;;;;5001385;28;93237;-79
2022/12/31 12:31:21;;;;;;;3.25;2.95;;;15.40;99.90;;;;;;5016807;28;92401;-79
2022/12/31 12:33:51;;;;;;;5.75;2.30;;;15.40;99.90;;;;;;5018052;28;91763;-79
2022/12/31 12:36:21;;;;;;;5.40;2.38;;;15.40;99.90;;;;;;5017829;28;94204;-79
2022/12/31 12:39:05;;;;;;;3.63;2.33;;;15.50;99.90;;;;;;5001048;28;93087;-79
2022/12/31 12:41:32;;;;;;;2.63;2.42;;;15.60;99.90;;;;;;5034275;28;94854;-79
2022/12/31 12:44:13;;;;;;;4.53;2.72;;;15.60;99.90;;;;;;5000862;28;93000;-79
2022/12/31 12:46:46;;;;;;;3.70;3.40;;;15.70;99.90;;;;;;5017507;28;94858;-79
2022/12/31 12:49:30;;;;;;;8.55;5.50;;;15.80;99.90;;;;;;5017143;28;94151;-79
2022/12/31 12:52:26;;;;;;;4.32;3.58;;;15.80;99.90;;;;;;5035748;28;92456;-79
2022/12/31 12:55:07;;;;;;;3.63;1.70;;;15.80;99.90;;;;;;5017879;28;92427;-79
2022/12/31 12:58:05;;;;;;;3.83;2.70;;;15.90;99.90;;;;;;5017869;28;93209;-79
2022/12/31 13:00:50;;;;;;;5.97;3.97;;;15.90;99.90;;;;;;5017954;28;93123;-79
2022/12/31 13:03:26;;;;;;;6.65;2.90;;;15.90;99.90;;;;;;5017255;28;93334;-79
2022/12/31 13:06:03;;;;;;;5.18;3.17;;;15.90;99.90;;;;;;5033742;28;92529;-79
2022/12/31 13:08:48;;;;;;;8.45;5.28;;;15.90;99.90;;;;;;4999125;28;98560;-79
2022/12/31 13:11:34;;;;;;;32.90;21.02;;;15.90;99.90;;;;;;5032887;28;98003;-79
2022/12/31 13:14:38;;;;;;;4.65;2.20;;;16.00;99.90;;;;;;5016378;28;92508;-79
2022/12/31 13:17:41;;;;;;;4.07;1.80;;;15.90;99.90;;;;;;5017286;28;92687;-79
2022/12/31 13:20:28;;;;;;;2.92;1.48;;;15.80;99.90;;;;;;5001794;28;94510;-79
2022/12/31 13:23:25;;;;;;;4.22;1.60;;;15.80;99.90;;;;;;5035205;28;93027;-79
2022/12/31 13:26:05;;;;;;;3.40;2.63;;;15.80;99.90;;;;;;5026857;28;92433;-79
2022/12/31 13:28:35;;;;;;;3.13;1.50;;;15.80;99.90;;;;;;5035429;28;91721;-79
2022/12/31 13:31:08;;;;;;;4.60;2.08;;;15.70;99.90;;;;;;5017284;28;93309;-79
2022/12/31 13:33:40;;;;;;;4.32;2.00;;;15.70;99.90;;;;;;5016716;28;95810;-80
2022/12/31 13:36:14;;;;;;;3.65;1.40;;;15.60;99.90;;;;;;5015513;28;94898;-79
2022/12/31 13:38:43;;;;;;;4.40;2.63;;;15.50;99.90;;;;;;5000218;28;92477;-78
2022/12/31 13:41:11;;;;;;;2.83;2.53;;;15.40;99.90;;;;;;5033985;28;93222;-79
2022/12/31 13:44:12;;;;;;;5.57;3.65;;;15.40;99.90;;;;;;5003165;28;95781;-79
2022/12/31 13:46:51;;;;;;;5.03;3.33;;;15.30;99.90;;;;;;5020026;28;93165;-79